Weather at Tojeira Airfield

Public forecast

Using degrees Celsius for public forecast. Weather courtesy of forecast.io.

Closest aviation weather report (METAR) to Tojeira Airfield

Report is more than 6 hours old.

Closest report is Sintra Air Base, 5.2 nm (9.7 km) SE. Retrieved 2022/09/01 08:00 UTC (24 days ago):

LPST 010800Z 34008KT 9999 BKN012 19/16 Q1018

Closest aviation forecast (TAF) to Tojeira Airfield

Forecast is more than 12 hours old.

Closest forecast is Sintra Air Base, 5.2 nm (9.7 km) SE. Retrieved 2022/07/29 09:00 UTC (2 months ago):

TAF LPST 290805Z 2909/2918 33012KT 9999 FEW010 BKN014 BECMG 2909/2911 SCT015 TEMPO 2909/2912 34015G25KT TEMPO 2912/2918 34018G30KT